Аэропорт: Пулково. Санкт-Петербург

ICAO: ULLI

METAR:
2020-10-24 05:00:00
ULLI 240500Z 24002MPS CAVOK M01/M02 Q1004 R28L/090060 NOSIG
METAR:
2020-10-24 01:59:00
TAF ULLI 240159Z 2403/2503 23003MPS 9999 BKN016 TEMPO 2407/2413 25005G10MPS TEMPO 2418/2421 20003MPS 6000 BKN011 TEMPO 2421/2503 3100 -SHRA BR BKN007 BKN016CB